sensor_id;sensor_type;location;lat;lon;timestamp;temperature;humidity
55436;DHT22;41307;53.142;6.430;2023-07-31T00:02:20;16.10;99.90
55436;DHT22;41307;53.142;6.430;2023-07-31T00:04:46;16.20;99.90
55436;DHT22;41307;53.142;6.430;2023-07-31T00:07:11;16.10;99.90
55436;DHT22;41307;53.142;6.430;2023-07-31T00:09:37;16.10;99.90
55436;DHT22;41307;53.142;6.430;2023-07-31T00:12:03;16.00;99.90
55436;DHT22;41307;53.142;6.430;2023-07-31T00:14:29;16.00;99.90
55436;DHT22;41307;53.142;6.430;2023-07-31T00:16:58;16.00;99.90
55436;DHT22;41307;53.142;6.430;2023-07-31T00:19:23;16.00;99.90
55436;DHT22;41307;53.142;6.430;2023-07-31T00:21:49;15.90;99.90
55436;DHT22;41307;53.142;6.430;2023-07-31T00:24:15;15.90;99.90
55436;DHT22;41307;53.142;6.430;2023-07-31T00:26:41;15.90;99.90
55436;DHT22;41307;53.142;6.430;2023-07-31T00:29:06;15.80;99.90
55436;DHT22;41307;53.142;6.430;2023-07-31T00:31:32;15.80;99.90
55436;DHT22;41307;53.142;6.430;2023-07-31T00:33:58;15.80;99.90
55436;DHT22;41307;53.142;6.430;2023-07-31T00:36:26;15.70;99.90
55436;DHT22;41307;53.142;6.430;2023-07-31T00:38:52;15.70;99.90
55436;DHT22;41307;53.142;6.430;2023-07-31T00:41:17;15.70;99.90
55436;DHT22;41307;53.142;6.430;2023-07-31T00:43:43;15.60;99.90
55436;DHT22;41307;53.142;6.430;2023-07-31T00:46:09;15.70;99.90
55436;DHT22;41307;53.142;6.430;2023-07-31T00:48:35;15.70;99.90
55436;DHT22;41307;53.142;6.430;2023-07-31T00:51:01;15.60;99.90
55436;DHT22;41307;53.142;6.430;2023-07-31T00:53:28;15.60;99.90
55436;DHT22;41307;53.142;6.430;2023-07-31T00:55:54;15.70;99.90
55436;DHT22;41307;53.142;6.430;2023-07-31T00:58:19;15.60;99.90
55436;DHT22;41307;53.142;6.430;2023-07-31T01:00:45;15.60;99.90
55436;DHT22;41307;53.142;6.430;2023-07-31T01:03:12;15.50;99.90
55436;DHT22;41307;53.142;6.430;2023-07-31T01:10:53;15.60;99.90
55436;DHT22;41307;53.142;6.430;2023-07-31T01:13:21;15.50;99.90
55436;DHT22;41307;53.142;6.430;2023-07-31T01:15:47;15.60;99.90
55436;DHT22;41307;53.142;6.430;2023-07-31T01:18:13;15.60;99.90
55436;DHT22;41307;53.142;6.430;2023-07-31T01:20:42;15.50;99.90
55436;DHT22;41307;53.142;6.430;2023-07-31T01:26:11;15.60;99.90
55436;DHT22;41307;53.142;6.430;2023-07-31T01:31:29;15.50;99.90
55436;DHT22;41307;53.142;6.430;2023-07-31T01:34:00;15.50;99.90
55436;DHT22;41307;53.142;6.430;2023-07-31T01:36:26;15.50;99.90
55436;DHT22;41307;53.142;6.430;2023-07-31T01:38:52;15.60;99.90
55436;DHT22;41307;53.142;6.430;2023-07-31T01:41:18;15.60;99.90
55436;DHT22;41307;53.142;6.430;2023-07-31T01:43:45;15.50;99.90
55436;DHT22;41307;53.142;6.430;2023-07-31T01:46:11;15.50;99.90
55436;DHT22;41307;53.142;6.430;2023-07-31T01:48:37;15.60;99.90
55436;DHT22;41307;53.142;6.430;2023-07-31T01:51:03;15.60;99.90
55436;DHT22;41307;53.142;6.430;2023-07-31T01:53:31;15.50;99.90
55436;DHT22;41307;53.142;6.430;2023-07-31T01:55:56;15.50;99.90
55436;DHT22;41307;53.142;6.430;2023-07-31T01:58:22;15.50;99.90
55436;DHT22;41307;53.142;6.430;2023-07-31T02:00:48;15.50;99.90
55436;DHT22;41307;53.142;6.430;2023-07-31T02:03:14;15.60;99.90
55436;DHT22;41307;53.142;6.430;2023-07-31T02:05:47;15.50;99.90
55436;DHT22;41307;53.142;6.430;2023-07-31T02:08:13;15.50;99.90
55436;DHT22;41307;53.142;6.430;2023-07-31T02:10:39;15.50;99.90
55436;DHT22;41307;53.142;6.430;2023-07-31T02:13:05;15.50;99.90
55436;DHT22;41307;53.142;6.430;2023-07-31T02:15:31;15.40;99.90
55436;DHT22;41307;53.142;6.430;2023-07-31T02:17:56;15.50;99.90
55436;DHT22;41307;53.142;6.430;2023-07-31T02:20:22;15.50;99.90
55436;DHT22;41307;53.142;6.430;2023-07-31T02:22:48;15.40;99.90
55436;DHT22;41307;53.142;6.430;2023-07-31T02:25:14;15.40;99.90
55436;DHT22;41307;53.142;6.430;2023-07-31T02:27:40;15.40;99.90
55436;DHT22;41307;53.142;6.430;2023-07-31T02:30:06;15.40;99.90
55436;DHT22;41307;53.142;6.430;2023-07-31T02:32:32;15.40;99.90
55436;DHT22;41307;53.142;6.430;2023-07-31T02:34:57;15.50;99.90
55436;DHT22;41307;53.142;6.430;2023-07-31T02:37:23;15.50;99.90
55436;DHT22;41307;53.142;6.430;2023-07-31T02:39:49;15.50;99.90
55436;DHT22;41307;53.142;6.430;2023-07-31T02:42:15;15.40;99.90
55436;DHT22;41307;53.142;6.430;2023-07-31T02:44:41;15.40;99.90
55436;DHT22;41307;53.142;6.430;2023-07-31T02:47:06;15.40;99.90
55436;DHT22;41307;53.142;6.430;2023-07-31T02:49:32;15.40;99.90
55436;DHT22;41307;53.142;6.430;2023-07-31T02:51:58;15.30;99.90
55436;DHT22;41307;53.142;6.430;2023-07-31T02:54:24;15.40;99.90
55436;DHT22;41307;53.142;6.430;2023-07-31T02:56:49;15.30;99.90
55436;DHT22;41307;53.142;6.430;2023-07-31T02:59:15;15.40;99.90
55436;DHT22;41307;53.142;6.430;2023-07-31T03:01:41;15.40;99.90
55436;DHT22;41307;53.142;6.430;2023-07-31T03:04:07;15.40;99.90
55436;DHT22;41307;53.142;6.430;2023-07-31T03:06:32;15.40;99.90
55436;DHT22;41307;53.142;6.430;2023-07-31T03:08:58;15.40;99.90
55436;DHT22;41307;53.142;6.430;2023-07-31T03:11:24;15.30;99.90
55436;DHT22;41307;53.142;6.430;2023-07-31T03:13:50;15.30;99.90
55436;DHT22;41307;53.142;6.430;2023-07-31T03:16:15;15.40;99.90
55436;DHT22;41307;53.142;6.430;2023-07-31T03:18:41;15.30;99.90
55436;DHT22;41307;53.142;6.430;2023-07-31T03:21:07;15.40;99.90
55436;DHT22;41307;53.142;6.430;2023-07-31T03:23:33;15.30;99.90
55436;DHT22;41307;53.142;6.430;2023-07-31T03:26:00;15.40;99.90
55436;DHT22;41307;53.142;6.430;2023-07-31T03:28:26;15.40;99.90
55436;DHT22;41307;53.142;6.430;2023-07-31T03:30:52;15.40;99.90
55436;DHT22;41307;53.142;6.430;2023-07-31T03:33:18;15.30;99.90
55436;DHT22;41307;53.142;6.430;2023-07-31T03:35:44;15.30;99.90
55436;DHT22;41307;53.142;6.430;2023-07-31T03:38:10;15.30;99.90
55436;DHT22;41307;53.142;6.430;2023-07-31T03:40:36;15.40;99.90
55436;DHT22;41307;53.142;6.430;2023-07-31T03:43:02;15.40;99.90
55436;DHT22;41307;53.142;6.430;2023-07-31T03:45:27;15.40;99.90
55436;DHT22;41307;53.142;6.430;2023-07-31T03:47:53;15.40;99.90
55436;DHT22;41307;53.142;6.430;2023-07-31T03:50:20;15.30;99.90
55436;DHT22;41307;53.142;6.430;2023-07-31T03:52:46;15.40;99.90
55436;DHT22;41307;53.142;6.430;2023-07-31T03:55:12;15.30;99.90
55436;DHT22;41307;53.142;6.430;2023-07-31T03:57:38;15.40;99.90
55436;DHT22;41307;53.142;6.430;2023-07-31T04:00:04;15.40;99.90
55436;DHT22;41307;53.142;6.430;2023-07-31T04:02:30;15.30;99.90
55436;DHT22;41307;53.142;6.430;2023-07-31T04:04:55;15.30;99.90
55436;DHT22;41307;53.142;6.430;2023-07-31T04:07:21;15.40;99.90
55436;DHT22;41307;53.142;6.430;2023-07-31T04:09:47;15.50;99.90
55436;DHT22;41307;53.142;6.430;2023-07-31T04:12:13;15.50;99.90
55436;DHT22;41307;53.142;6.430;2023-07-31T04:14:38;15.50;99.90
55436;DHT22;41307;53.142;6.430;2023-07-31T04:17:04;15.50;99.90
55436;DHT22;41307;53.142;6.430;2023-07-31T04:19:30;15.40;99.90
55436;DHT22;41307;53.142;6.430;2023-07-31T04:21:56;15.50;99.90
55436;DHT22;41307;53.142;6.430;2023-07-31T04:24:21;15.40;99.90
55436;DHT22;41307;53.142;6.430;2023-07-31T04:26:51;15.50;99.90
55436;DHT22;41307;53.142;6.430;2023-07-31T04:29:17;15.60;99.90
55436;DHT22;41307;53.142;6.430;2023-07-31T04:31:43;16.00;99.90
55436;DHT22;41307;53.142;6.430;2023-07-31T04:34:08;15.50;99.90
55436;DHT22;41307;53.142;6.430;2023-07-31T04:36:34;15.50;99.90
55436;DHT22;41307;53.142;6.430;2023-07-31T04:39:01;15.50;99.90
55436;DHT22;41307;53.142;6.430;2023-07-31T04:41:26;15.50;99.90
55436;DHT22;41307;53.142;6.430;2023-07-31T04:43:52;15.50;99.90
55436;DHT22;41307;53.142;6.430;2023-07-31T04:46:18;15.60;99.90
55436;DHT22;41307;53.142;6.430;2023-07-31T04:48:44;15.60;99.90
55436;DHT22;41307;53.142;6.430;2023-07-31T04:51:09;15.50;99.90
55436;DHT22;41307;53.142;6.430;2023-07-31T04:53:35;15.60;99.90
55436;DHT22;41307;53.142;6.430;2023-07-31T04:56:01;15.60;99.90
55436;DHT22;41307;53.142;6.430;2023-07-31T04:58:27;15.50;99.90
55436;DHT22;41307;53.142;6.430;2023-07-31T05:00:53;15.60;99.90
55436;DHT22;41307;53.142;6.430;2023-07-31T05:03:18;15.50;99.90
55436;DHT22;41307;53.142;6.430;2023-07-31T05:05:44;15.50;99.90
55436;DHT22;41307;53.142;6.430;2023-07-31T05:08:10;15.50;99.90
55436;DHT22;41307;53.142;6.430;2023-07-31T05:10:36;15.60;99.90
55436;DHT22;41307;53.142;6.430;2023-07-31T05:13:01;15.50;99.90
55436;DHT22;41307;53.142;6.430;2023-07-31T05:15:28;15.60;99.90
55436;DHT22;41307;53.142;6.430;2023-07-31T05:17:53;15.60;99.90
55436;DHT22;41307;53.142;6.430;2023-07-31T05:20:19;15.50;99.90
55436;DHT22;41307;53.142;6.430;2023-07-31T05:22:45;15.60;99.90
55436;DHT22;41307;53.142;6.430;2023-07-31T05:25:10;15.50;99.90
55436;DHT22;41307;53.142;6.430;2023-07-31T05:27:36;15.50;99.90
55436;DHT22;41307;53.142;6.430;2023-07-31T05:30:02;15.70;99.90
55436;DHT22;41307;53.142;6.430;2023-07-31T05:32:28;15.70;99.90
55436;DHT22;41307;53.142;6.430;2023-07-31T05:34:54;15.70;99.90
55436;DHT22;41307;53.142;6.430;2023-07-31T05:37:20;15.70;99.90
55436;DHT22;41307;53.142;6.430;2023-07-31T05:39:46;15.80;99.90
55436;DHT22;41307;53.142;6.430;2023-07-31T05:42:11;15.80;99.90
55436;DHT22;41307;53.142;6.430;2023-07-31T05:44:37;15.80;99.90
55436;DHT22;41307;53.142;6.430;2023-07-31T05:47:03;15.70;99.90
55436;DHT22;41307;53.142;6.430;2023-07-31T05:49:28;15.70;99.90
55436;DHT22;41307;53.142;6.430;2023-07-31T05:51:54;15.80;99.90
55436;DHT22;41307;53.142;6.430;2023-07-31T05:54:20;15.80;99.90
55436;DHT22;41307;53.142;6.430;2023-07-31T05:56:46;15.90;99.90
55436;DHT22;41307;53.142;6.430;2023-07-31T05:59:12;15.90;99.90
55436;DHT22;41307;53.142;6.430;2023-07-31T06:01:39;15.90;99.90
55436;DHT22;41307;53.142;6.430;2023-07-31T06:04:05;16.00;99.90
55436;DHT22;41307;53.142;6.430;2023-07-31T06:06:31;16.00;99.90
55436;DHT22;41307;53.142;6.430;2023-07-31T06:08:56;16.00;99.90
55436;DHT22;41307;53.142;6.430;2023-07-31T06:11:22;16.00;99.90
55436;DHT22;41307;53.142;6.430;2023-07-31T06:13:48;15.90;99.90
55436;DHT22;41307;53.142;6.430;2023-07-31T06:16:15;16.10;99.90
55436;DHT22;41307;53.142;6.430;2023-07-31T06:18:42;16.10;99.90
55436;DHT22;41307;53.142;6.430;2023-07-31T06:21:09;16.20;99.90
55436;DHT22;41307;53.142;6.430;2023-07-31T06:23:35;16.20;99.90
55436;DHT22;41307;53.142;6.430;2023-07-31T06:26:01;16.30;99.90
55436;DHT22;41307;53.142;6.430;2023-07-31T06:28:31;16.40;99.90
55436;DHT22;41307;53.142;6.430;2023-07-31T06:30:57;16.50;99.90
55436;DHT22;41307;53.142;6.430;2023-07-31T06:33:23;16.60;99.90
55436;DHT22;41307;53.142;6.430;2023-07-31T06:35:50;16.60;99.90
55436;DHT22;41307;53.142;6.430;2023-07-31T06:38:15;16.70;99.90
55436;DHT22;41307;53.142;6.430;2023-07-31T06:40:41;16.70;99.90
55436;DHT22;41307;53.142;6.430;2023-07-31T06:43:07;16.90;99.90
55436;DHT22;41307;53.142;6.430;2023-07-31T06:45:36;16.90;99.90
55436;DHT22;41307;53.142;6.430;2023-07-31T06:48:04;17.10;99.90
55436;DHT22;41307;53.142;6.430;2023-07-31T06:50:33;17.20;99.90
55436;DHT22;41307;53.142;6.430;2023-07-31T06:52:59;17.20;99.90
55436;DHT22;41307;53.142;6.430;2023-07-31T06:55:25;17.20;99.90
55436;DHT22;41307;53.142;6.430;2023-07-31T06:57:53;17.40;99.90
55436;DHT22;41307;53.142;6.430;2023-07-31T07:00:20;17.30;99.90
55436;DHT22;41307;53.142;6.430;2023-07-31T07:02:47;17.30;99.90
55436;DHT22;41307;53.142;6.430;2023-07-31T07:05:16;17.30;99.90
55436;DHT22;41307;53.142;6.430;2023-07-31T07:07:42;17.30;99.90
55436;DHT22;41307;53.142;6.430;2023-07-31T07:10:09;17.30;99.90
55436;DHT22;41307;53.142;6.430;2023-07-31T07:12:35;17.30;99.90
55436;DHT22;41307;53.142;6.430;2023-07-31T07:15:01;17.20;99.90
55436;DHT22;41307;53.142;6.430;2023-07-31T07:17:28;17.20;99.90
55436;DHT22;41307;53.142;6.430;2023-07-31T07:19:57;17.20;99.90
55436;DHT22;41307;53.142;6.430;2023-07-31T07:22:23;17.20;99.90
55436;DHT22;41307;53.142;6.430;2023-07-31T07:24:49;17.10;99.90
55436;DHT22;41307;53.142;6.430;2023-07-31T07:27:15;17.00;99.90
55436;DHT22;41307;53.142;6.430;2023-07-31T07:29:40;17.10;99.90
55436;DHT22;41307;53.142;6.430;2023-07-31T07:32:06;17.10;99.90
55436;DHT22;41307;53.142;6.430;2023-07-31T07:34:32;17.00;99.90
55436;DHT22;41307;53.142;6.430;2023-07-31T07:36:58;17.10;99.90
55436;DHT22;41307;53.142;6.430;2023-07-31T07:39:24;17.00;99.90
55436;DHT22;41307;53.142;6.430;2023-07-31T07:41:50;16.90;99.90
55436;DHT22;41307;53.142;6.430;2023-07-31T07:44:16;17.00;99.90
55436;DHT22;41307;53.142;6.430;2023-07-31T07:46:42;17.00;99.90
55436;DHT22;41307;53.142;6.430;2023-07-31T07:49:07;17.00;99.90
55436;DHT22;41307;53.142;6.430;2023-07-31T07:51:33;17.00;99.90
55436;DHT22;41307;53.142;6.430;2023-07-31T07:53:59;17.10;99.90
55436;DHT22;41307;53.142;6.430;2023-07-31T07:56:28;16.90;99.90
55436;DHT22;41307;53.142;6.430;2023-07-31T07:58:54;16.90;99.90
55436;DHT22;41307;53.142;6.430;2023-07-31T08:01:20;16.90;99.90
55436;DHT22;41307;53.142;6.430;2023-07-31T08:03:49;16.90;99.90
55436;DHT22;41307;53.142;6.430;2023-07-31T08:06:15;16.90;99.90
55436;DHT22;41307;53.142;6.430;2023-07-31T08:08:41;17.00;99.90
55436;DHT22;41307;53.142;6.430;2023-07-31T08:11:07;16.90;99.90
55436;DHT22;41307;53.142;6.430;2023-07-31T08:13:32;17.00;99.90
55436;DHT22;41307;53.142;6.430;2023-07-31T08:15:58;17.00;99.90
55436;DHT22;41307;53.142;6.430;2023-07-31T08:18:24;17.20;99.90
55436;DHT22;41307;53.142;6.430;2023-07-31T08:20:50;17.30;99.90
55436;DHT22;41307;53.142;6.430;2023-07-31T08:23:15;17.30;99.90
55436;DHT22;41307;53.142;6.430;2023-07-31T08:25:42;17.20;99.90
55436;DHT22;41307;53.142;6.430;2023-07-31T08:28:08;17.30;99.90
55436;DHT22;41307;53.142;6.430;2023-07-31T08:30:33;17.30;99.90
55436;DHT22;41307;53.142;6.430;2023-07-31T08:33:00;17.50;99.90
55436;DHT22;41307;53.142;6.430;2023-07-31T08:35:26;17.50;99.90
55436;DHT22;41307;53.142;6.430;2023-07-31T08:37:54;17.50;99.90
55436;DHT22;41307;53.142;6.430;2023-07-31T08:40:20;17.70;99.90
55436;DHT22;41307;53.142;6.430;2023-07-31T08:42:49;17.70;99.90
55436;DHT22;41307;53.142;6.430;2023-07-31T08:45:17;17.70;99.90
55436;DHT22;41307;53.142;6.430;2023-07-31T08:47:46;17.80;99.90
55436;DHT22;41307;53.142;6.430;2023-07-31T08:50:16;17.70;99.90
55436;DHT22;41307;53.142;6.430;2023-07-31T08:52:48;17.90;99.90
55436;DHT22;41307;53.142;6.430;2023-07-31T08:55:14;17.90;99.90
55436;DHT22;41307;53.142;6.430;2023-07-31T08:57:40;17.90;99.90
55436;DHT22;41307;53.142;6.430;2023-07-31T09:00:08;17.90;99.90
55436;DHT22;41307;53.142;6.430;2023-07-31T09:05:18;17.90;99.90
55436;DHT22;41307;53.142;6.430;2023-07-31T09:07:47;17.80;99.90
55436;DHT22;41307;53.142;6.430;2023-07-31T09:10:14;17.80;99.90
55436;DHT22;41307;53.142;6.430;2023-07-31T09:12:40;17.60;99.90
55436;DHT22;41307;53.142;6.430;2023-07-31T09:15:07;17.60;99.90
55436;DHT22;41307;53.142;6.430;2023-07-31T09:17:35;17.60;99.90
55436;DHT22;41307;53.142;6.430;2023-07-31T09:22:47;17.60;99.90
55436;DHT22;41307;53.142;6.430;2023-07-31T09:25:24;17.60;99.90
55436;DHT22;41307;53.142;6.430;2023-07-31T09:27:54;17.80;99.90
55436;DHT22;41307;53.142;6.430;2023-07-31T09:30:21;17.70;99.90
55436;DHT22;41307;53.142;6.430;2023-07-31T09:32:48;17.70;99.90
55436;DHT22;41307;53.142;6.430;2023-07-31T09:35:22;17.90;99.90
55436;DHT22;41307;53.142;6.430;2023-07-31T09:37:52;17.80;99.90
55436;DHT22;41307;53.142;6.430;2023-07-31T09:40:35;18.00;99.90
55436;DHT22;41307;53.142;6.430;2023-07-31T09:43:03;18.10;99.90
55436;DHT22;41307;53.142;6.430;2023-07-31T09:45:29;18.00;99.90
55436;DHT22;41307;53.142;6.430;2023-07-31T09:47:56;18.00;99.90
55436;DHT22;41307;53.142;6.430;2023-07-31T09:50:24;18.00;99.90
55436;DHT22;41307;53.142;6.430;2023-07-31T09:52:51;18.20;99.90
55436;DHT22;41307;53.142;6.430;2023-07-31T09:55:18;18.20;99.90
55436;DHT22;41307;53.142;6.430;2023-07-31T09:57:49;18.20;99.90
55436;DHT22;41307;53.142;6.430;2023-07-31T10:00:17;18.30;99.90
55436;DHT22;41307;53.142;6.430;2023-07-31T10:02:46;18.40;99.90
55436;DHT22;41307;53.142;6.430;2023-07-31T10:05:14;18.40;99.90
55436;DHT22;41307;53.142;6.430;2023-07-31T10:07:44;18.40;99.90
55436;DHT22;41307;53.142;6.430;2023-07-31T10:10:11;18.30;99.90
55436;DHT22;41307;53.142;6.430;2023-07-31T10:12:39;18.30;99.90
55436;DHT22;41307;53.142;6.430;2023-07-31T10:15:05;18.30;99.90
55436;DHT22;41307;53.142;6.430;2023-07-31T10:17:33;18.20;99.90
55436;DHT22;41307;53.142;6.430;2023-07-31T10:20:02;18.30;99.90
55436;DHT22;41307;53.142;6.430;2023-07-31T10:22:30;18.20;99.90
55436;DHT22;41307;53.142;6.430;2023-07-31T10:24:58;18.20;99.90
55436;DHT22;41307;53.142;6.430;2023-07-31T10:27:25;18.20;99.90
55436;DHT22;41307;53.142;6.430;2023-07-31T10:29:52;18.20;99.90
55436;DHT22;41307;53.142;6.430;2023-07-31T10:32:20;18.20;99.90
55436;DHT22;41307;53.142;6.430;2023-07-31T10:34:47;18.40;99.90
55436;DHT22;41307;53.142;6.430;2023-07-31T10:37:40;18.40;99.90
55436;DHT22;41307;53.142;6.430;2023-07-31T10:40:24;18.60;99.90
55436;DHT22;41307;53.142;6.430;2023-07-31T10:42:54;18.90;99.90
55436;DHT22;41307;53.142;6.430;2023-07-31T10:48:01;19.70;99.90
55436;DHT22;41307;53.142;6.430;2023-07-31T10:50:28;19.80;99.90
55436;DHT22;41307;53.142;6.430;2023-07-31T10:52:56;20.10;99.90
55436;DHT22;41307;53.142;6.430;2023-07-31T10:55:29;20.30;99.90
55436;DHT22;41307;53.142;6.430;2023-07-31T10:57:57;20.40;99.90
55436;DHT22;41307;53.142;6.430;2023-07-31T11:00:27;20.40;99.90
55436;DHT22;41307;53.142;6.430;2023-07-31T11:03:01;20.40;99.90
55436;DHT22;41307;53.142;6.430;2023-07-31T11:06:01;20.30;99.90
55436;DHT22;41307;53.142;6.430;2023-07-31T11:08:30;20.10;99.90
55436;DHT22;41307;53.142;6.430;2023-07-31T11:15:53;20.60;99.90
55436;DHT22;41307;53.142;6.430;2023-07-31T11:18:19;20.90;99.90
55436;DHT22;41307;53.142;6.430;2023-07-31T11:20:45;21.00;99.90
55436;DHT22;41307;53.142;6.430;2023-07-31T11:23:11;21.10;99.90
55436;DHT22;41307;53.142;6.430;2023-07-31T11:25:38;21.10;99.90
55436;DHT22;41307;53.142;6.430;2023-07-31T11:28:12;21.30;99.90
55436;DHT22;41307;53.142;6.430;2023-07-31T11:30:42;21.50;99.90
55436;DHT22;41307;53.142;6.430;2023-07-31T11:33:10;21.50;99.90
55436;DHT22;41307;53.142;6.430;2023-07-31T11:35:44;21.40;99.90
55436;DHT22;41307;53.142;6.430;2023-07-31T11:38:12;21.40;99.90
55436;DHT22;41307;53.142;6.430;2023-07-31T11:40:42;21.30;99.90
55436;DHT22;41307;53.142;6.430;2023-07-31T11:43:08;21.40;99.90
55436;DHT22;41307;53.142;6.430;2023-07-31T11:45:34;21.40;99.90
55436;DHT22;41307;53.142;6.430;2023-07-31T11:48:01;21.50;99.90
55436;DHT22;41307;53.142;6.430;2023-07-31T11:50:27;21.50;99.90
55436;DHT22;41307;53.142;6.430;2023-07-31T11:53:00;21.30;99.90
55436;DHT22;41307;53.142;6.430;2023-07-31T11:55:28;21.00;99.90
55436;DHT22;41307;53.142;6.430;2023-07-31T11:57:56;20.80;99.90
55436;DHT22;41307;53.142;6.430;2023-07-31T12:00:23;20.50;99.90
55436;DHT22;41307;53.142;6.430;2023-07-31T12:02:50;20.40;99.90
55436;DHT22;41307;53.142;6.430;2023-07-31T12:05:16;20.30;99.90
55436;DHT22;41307;53.142;6.430;2023-07-31T12:07:49;20.30;99.90
55436;DHT22;41307;53.142;6.430;2023-07-31T12:10:28;20.40;99.90
55436;DHT22;41307;53.142;6.430;2023-07-31T12:15:34;20.40;99.90
55436;DHT22;41307;53.142;6.430;2023-07-31T12:18:03;20.40;99.90
55436;DHT22;41307;53.142;6.430;2023-07-31T12:20:30;20.40;99.90
55436;DHT22;41307;53.142;6.430;2023-07-31T12:22:56;20.30;99.90
55436;DHT22;41307;53.142;6.430;2023-07-31T12:25:28;20.20;99.90
55436;DHT22;41307;53.142;6.430;2023-07-31T12:27:54;20.10;99.90
55436;DHT22;41307;53.142;6.430;2023-07-31T12:30:31;20.00;99.90
55436;DHT22;41307;53.142;6.430;2023-07-31T12:33:04;20.00;99.90
55436;DHT22;41307;53.142;6.430;2023-07-31T12:35:38;19.90;99.90
55436;DHT22;41307;53.142;6.430;2023-07-31T12:38:06;19.90;99.90
55436;DHT22;41307;53.142;6.430;2023-07-31T12:40:39;19.90;99.90
55436;DHT22;41307;53.142;6.430;2023-07-31T12:43:08;19.80;99.90
55436;DHT22;41307;53.142;6.430;2023-07-31T12:45:35;19.80;99.90
55436;DHT22;41307;53.142;6.430;2023-07-31T12:48:06;19.90;99.90
55436;DHT22;41307;53.142;6.430;2023-07-31T12:50:35;19.90;99.90
55436;DHT22;41307;53.142;6.430;2023-07-31T12:53:05;19.80;99.90
55436;DHT22;41307;53.142;6.430;2023-07-31T12:55:35;19.90;99.90
55436;DHT22;41307;53.142;6.430;2023-07-31T12:58:05;19.80;99.90
55436;DHT22;41307;53.142;6.430;2023-07-31T13:00:33;19.70;99.90
55436;DHT22;41307;53.142;6.430;2023-07-31T13:03:04;19.60;99.90
55436;DHT22;41307;53.142;6.430;2023-07-31T13:05:33;19.60;99.90
55436;DHT22;41307;53.142;6.430;2023-07-31T13:08:02;19.70;99.90
55436;DHT22;41307;53.142;6.430;2023-07-31T13:10:30;19.70;99.90
55436;DHT22;41307;53.142;6.430;2023-07-31T13:13:04;19.70;99.90
55436;DHT22;41307;53.142;6.430;2023-07-31T13:15:43;19.80;99.90
55436;DHT22;41307;53.142;6.430;2023-07-31T13:18:52;19.80;99.90
55436;DHT22;41307;53.142;6.430;2023-07-31T13:21:31;19.90;99.90
55436;DHT22;41307;53.142;6.430;2023-07-31T13:24:38;20.30;99.90
55436;DHT22;41307;53.142;6.430;2023-07-31T13:27:18;20.10;99.90
55436;DHT22;41307;53.142;6.430;2023-07-31T13:30:15;20.10;99.90
55436;DHT22;41307;53.142;6.430;2023-07-31T13:32:50;20.30;99.90
55436;DHT22;41307;53.142;6.430;2023-07-31T13:35:24;20.50;99.90
55436;DHT22;41307;53.142;6.430;2023-07-31T13:37:53;20.60;99.90
55436;DHT22;41307;53.142;6.430;2023-07-31T13:40:27;20.60;99.90
55436;DHT22;41307;53.142;6.430;2023-07-31T13:42:53;20.50;99.90
55436;DHT22;41307;53.142;6.430;2023-07-31T13:45:29;20.50;99.90
55436;DHT22;41307;53.142;6.430;2023-07-31T13:48:07;20.50;99.90
55436;DHT22;41307;53.142;6.430;2023-07-31T13:50:37;20.50;99.90
55436;DHT22;41307;53.142;6.430;2023-07-31T13:53:05;20.60;99.90
55436;DHT22;41307;53.142;6.430;2023-07-31T13:55:40;20.70;99.90
55436;DHT22;41307;53.142;6.430;2023-07-31T13:58:06;20.90;99.90
55436;DHT22;41307;53.142;6.430;2023-07-31T14:00:39;21.00;99.90
55436;DHT22;41307;53.142;6.430;2023-07-31T14:03:11;21.10;99.90
55436;DHT22;41307;53.142;6.430;2023-07-31T14:05:40;21.10;99.90
55436;DHT22;41307;53.142;6.430;2023-07-31T14:08:08;21.00;99.90
55436;DHT22;41307;53.142;6.430;2023-07-31T14:10:36;20.80;99.90
55436;DHT22;41307;53.142;6.430;2023-07-31T14:13:10;20.80;99.90
55436;DHT22;41307;53.142;6.430;2023-07-31T14:15:35;20.60;99.90
55436;DHT22;41307;53.142;6.430;2023-07-31T14:18:04;20.60;99.90
55436;DHT22;41307;53.142;6.430;2023-07-31T14:20:33;20.50;99.90
55436;DHT22;41307;53.142;6.430;2023-07-31T14:22:59;20.50;99.90
55436;DHT22;41307;53.142;6.430;2023-07-31T14:25:43;20.50;99.90
55436;DHT22;41307;53.142;6.430;2023-07-31T14:28:12;20.50;99.90
55436;DHT22;41307;53.142;6.430;2023-07-31T14:31:01;20.50;99.90
55436;DHT22;41307;53.142;6.430;2023-07-31T14:33:27;20.60;99.90
55436;DHT22;41307;53.142;6.430;2023-07-31T14:36:20;20.70;99.90
55436;DHT22;41307;53.142;6.430;2023-07-31T14:39:07;20.70;99.90
55436;DHT22;41307;53.142;6.430;2023-07-31T14:41:38;20.60;99.90
55436;DHT22;41307;53.142;6.430;2023-07-31T14:44:13;20.60;99.90
55436;DHT22;41307;53.142;6.430;2023-07-31T14:46:42;20.50;99.90
55436;DHT22;41307;53.142;6.430;2023-07-31T14:49:08;20.40;99.90
55436;DHT22;41307;53.142;6.430;2023-07-31T14:51:42;20.30;99.90
55436;DHT22;41307;53.142;6.430;2023-07-31T14:54:14;20.30;99.90
55436;DHT22;41307;53.142;6.430;2023-07-31T14:56:42;20.10;99.90
55436;DHT22;41307;53.142;6.430;2023-07-31T14:59:08;20.10;99.90
55436;DHT22;41307;53.142;6.430;2023-07-31T15:01:38;20.10;99.90
55436;DHT22;41307;53.142;6.430;2023-07-31T15:04:06;20.10;99.90
55436;DHT22;41307;53.142;6.430;2023-07-31T15:06:35;20.00;99.90
55436;DHT22;41307;53.142;6.430;2023-07-31T15:09:09;20.00;99.90
55436;DHT22;41307;53.142;6.430;2023-07-31T15:11:35;20.00;99.90
55436;DHT22;41307;53.142;6.430;2023-07-31T15:14:01;20.00;99.90
55436;DHT22;41307;53.142;6.430;2023-07-31T15:16:30;20.00;99.90
55436;DHT22;41307;53.142;6.430;2023-07-31T15:19:05;20.00;99.90
55436;DHT22;41307;53.142;6.430;2023-07-31T15:24:48;19.90;99.90
55436;DHT22;41307;53.142;6.430;2023-07-31T15:27:14;19.90;99.90
55436;DHT22;41307;53.142;6.430;2023-07-31T15:29:49;19.90;99.90
55436;DHT22;41307;53.142;6.430;2023-07-31T15:32:25;19.90;99.90
55436;DHT22;41307;53.142;6.430;2023-07-31T15:38:36;19.80;99.90
55436;DHT22;41307;53.142;6.430;2023-07-31T15:44:08;19.80;99.90
55436;DHT22;41307;53.142;6.430;2023-07-31T15:47:03;19.80;99.90
55436;DHT22;41307;53.142;6.430;2023-07-31T15:49:29;19.70;99.90
55436;DHT22;41307;53.142;6.430;2023-07-31T15:52:04;19.70;99.90
55436;DHT22;41307;53.142;6.430;2023-07-31T15:54:50;19.80;99.90
55436;DHT22;41307;53.142;6.430;2023-07-31T15:57:16;19.60;99.90
55436;DHT22;41307;53.142;6.430;2023-07-31T16:02:53;19.70;99.90
55436;DHT22;41307;53.142;6.430;2023-07-31T16:05:40;19.70;99.90
55436;DHT22;41307;53.142;6.430;2023-07-31T16:08:27;19.70;99.90
55436;DHT22;41307;53.142;6.430;2023-07-31T16:11:22;19.70;99.90
55436;DHT22;41307;53.142;6.430;2023-07-31T16:13:50;19.70;99.90
55436;DHT22;41307;53.142;6.430;2023-07-31T16:16:27;19.70;99.90
55436;DHT22;41307;53.142;6.430;2023-07-31T16:25:44;19.60;99.90